createdAt,value
2022-10-05T00:00:50.837Z,100857.39
2022-10-05T00:03:22.813Z,100852.86
2022-10-05T00:05:53.526Z,100855.36
2022-10-05T00:08:26.273Z,100846.61
2022-10-05T00:10:56.905Z,100853.08
2022-10-05T00:13:29.775Z,100848.94
2022-10-05T00:16:10.436Z,100849.02
2022-10-05T00:18:41.388Z,100844.30
2022-10-05T00:21:20.613Z,100840.32
2022-10-05T00:23:52.610Z,100840.85
2022-10-05T00:26:25.182Z,100840.75
2022-10-05T00:28:57.383Z,100839.86
2022-10-05T00:31:32.382Z,100842.70
2022-10-05T00:34:03.444Z,100846.27
2022-10-05T00:36:34.414Z,100841.16
2022-10-05T00:39:06.010Z,100844.60
2022-10-05T00:41:50.353Z,100838.47
2022-10-05T00:44:32.365Z,100830.38
2022-10-05T00:47:15.786Z,100826.41
2022-10-05T00:50:06.184Z,100826.56
2022-10-05T00:52:47.460Z,100826.11
2022-10-05T00:55:25.395Z,100831.73
2022-10-05T00:58:07.880Z,100829.63
2022-10-05T01:00:46.428Z,100825.91
2022-10-05T01:03:24.194Z,100832.58
2022-10-05T01:06:05.451Z,100836.81
2022-10-05T01:08:49.115Z,100839.66
2022-10-05T01:11:27.332Z,100841.16
2022-10-05T01:14:06.957Z,100841.16
2022-10-05T01:16:48.000Z,100839.48
2022-10-05T01:19:40.783Z,100832.47
2022-10-05T01:22:21.207Z,100826.48
2022-10-05T01:25:08.981Z,100828.45
2022-10-05T01:27:49.687Z,100830.89
2022-10-05T01:30:23.036Z,100828.21
2022-10-05T01:33:03.212Z,100831.64
2022-10-05T01:35:46.254Z,100827.88
2022-10-05T01:38:25.926Z,100820.49
2022-10-05T01:41:05.037Z,100811.73
2022-10-05T01:43:43.711Z,100807.20
2022-10-05T01:46:26.249Z,100800.63
2022-10-05T01:49:14.144Z,100796.83
2022-10-05T01:51:57.900Z,100795.70
2022-10-05T01:54:40.677Z,100799.53
2022-10-05T01:57:21.692Z,100802.58
2022-10-05T02:00:07.587Z,100796.52
2022-10-05T02:02:49.871Z,100791.97
2022-10-05T02:05:23.291Z,100791.86
2022-10-05T02:07:58.547Z,100790.13
2022-10-05T02:10:34.023Z,100788.98
2022-10-05T02:13:10.560Z,100785.17
2022-10-05T02:15:45.834Z,100793.58
2022-10-05T02:18:23.019Z,100812.61
2022-10-05T02:20:56.603Z,100828.36
2022-10-05T02:23:36.802Z,100829.75
2022-10-05T02:26:10.206Z,100817.45
2022-10-05T02:28:45.092Z,100811.23
2022-10-05T02:31:20.627Z,100801.61
2022-10-05T02:33:51.855Z,100807.65
2022-10-05T02:36:30.102Z,100810.66
2022-10-05T02:39:13.074Z,100811.05
2022-10-05T02:41:52.460Z,100814.14
2022-10-05T02:44:34.586Z,100811.23
2022-10-05T02:47:13.750Z,100808.23
2022-10-05T02:49:52.881Z,100808.08
2022-10-05T02:52:30.626Z,100803.20
2022-10-05T02:55:09.379Z,100793.41
2022-10-05T02:57:46.245Z,100791.55
2022-10-05T03:00:20.008Z,100793.45
2022-10-05T03:02:59.412Z,100787.98
2022-10-05T03:05:36.555Z,100788.54
2022-10-05T03:08:12.646Z,100790.81
2022-10-05T03:10:54.009Z,100787.75
2022-10-05T03:13:33.622Z,100783.30
2022-10-05T03:16:17.092Z,100777.43
2022-10-05T03:18:59.951Z,100774.77
2022-10-05T03:21:44.028Z,100780.80
2022-10-05T03:24:38.527Z,100786.00
2022-10-05T03:27:19.257Z,100781.13
2022-10-05T03:29:58.711Z,100787.38
2022-10-05T03:32:42.556Z,100790.23
2022-10-05T03:35:19.241Z,100785.60
2022-10-05T03:37:54.712Z,100790.92
2022-10-05T03:40:32.049Z,100795.66
2022-10-05T03:43:20.405Z,100798.50
2022-10-05T03:45:58.062Z,100803.15
2022-10-05T03:48:35.213Z,100801.55
2022-10-05T03:51:14.742Z,100799.75
2022-10-05T03:53:50.811Z,100803.09
2022-10-05T03:56:30.937Z,100794.23
2022-10-05T03:59:06.492Z,100787.59
2022-10-05T04:01:44.416Z,100797.86
2022-10-05T04:04:25.212Z,100803.88
2022-10-05T04:06:58.905Z,100800.23
2022-10-05T04:09:35.223Z,100799.47
2022-10-05T04:12:13.841Z,100800.70
2022-10-05T04:14:50.956Z,100803.67
2022-10-05T04:17:32.753Z,100804.06
2022-10-05T04:20:08.722Z,100810.52
2022-10-05T04:22:45.651Z,100809.66
2022-10-05T04:25:19.619Z,100805.38
2022-10-05T04:28:00.538Z,100809.44
2022-10-05T04:30:34.166Z,100810.71
2022-10-05T04:33:12.603Z,100807.09
2022-10-05T04:36:03.595Z,100807.09
2022-10-05T04:38:45.758Z,100810.73
2022-10-05T04:41:30.162Z,100806.41
2022-10-05T04:44:23.524Z,100808.03
2022-10-05T04:47:11.894Z,100810.12
2022-10-05T04:50:01.749Z,100819.94
2022-10-05T04:52:39.629Z,100820.66
2022-10-05T04:55:20.182Z,100817.55
2022-10-05T04:57:56.413Z,100820.16
2022-10-05T05:00:30.999Z,100821.09
2022-10-05T05:03:36.030Z,100826.89
2022-10-05T05:06:19.834Z,100823.48
2022-10-05T05:09:18.627Z,100817.98
2022-10-05T05:12:03.717Z,100819.10
2022-10-05T05:15:13.683Z,100815.55
2022-10-05T05:17:58.127Z,100822.84
2022-10-05T05:20:43.222Z,100828.74
2022-10-05T05:23:23.458Z,100833.09
2022-10-05T05:26:04.031Z,100836.79
2022-10-05T05:28:45.292Z,100827.05
2022-10-05T05:31:26.209Z,100832.16
2022-10-05T05:34:06.530Z,100836.77
2022-10-05T05:36:50.260Z,100839.93
2022-10-05T05:39:28.991Z,100831.00
2022-10-05T05:42:17.160Z,100838.50
2022-10-05T05:44:52.006Z,100830.89
2022-10-05T05:47:31.198Z,100839.31
2022-10-05T05:50:20.558Z,100844.20
2022-10-05T05:52:54.959Z,100843.66
2022-10-05T05:55:31.083Z,100840.90
2022-10-05T05:58:10.480Z,100847.05
2022-10-05T06:00:46.922Z,100842.36
2022-10-05T06:03:23.811Z,100845.86
2022-10-05T06:05:59.343Z,100848.41
2022-10-05T06:08:36.033Z,100853.24
2022-10-05T06:11:19.085Z,100851.92
2022-10-05T06:13:50.914Z,100844.05
2022-10-05T06:16:26.593Z,100841.12
2022-10-05T06:19:01.047Z,100839.45
2022-10-05T06:21:36.877Z,100840.10
2022-10-05T06:24:16.091Z,100844.35
2022-10-05T06:27:25.744Z,100841.13
2022-10-05T06:30:08.285Z,100835.83
2022-10-05T06:33:04.067Z,100835.49
2022-10-05T06:35:47.601Z,100832.90
2022-10-05T06:38:40.024Z,100823.23
2022-10-05T06:41:20.881Z,100823.20
2022-10-05T06:43:59.704Z,100825.09
2022-10-05T06:46:51.643Z,100824.09
2022-10-05T06:49:48.305Z,100824.96
2022-10-05T06:53:09.808Z,100819.66
2022-10-05T06:55:52.196Z,100810.60
2022-10-05T06:58:42.816Z,100804.27
2022-10-05T07:01:25.207Z,100804.98
2022-10-05T07:04:11.018Z,100809.70
2022-10-05T07:06:47.399Z,100809.84
2022-10-05T07:09:27.840Z,100804.05
2022-10-05T07:12:23.972Z,100808.56
2022-10-05T07:15:26.612Z,100798.11
2022-10-05T07:18:13.154Z,100788.16
2022-10-05T07:20:51.818Z,100790.86
2022-10-05T07:23:42.048Z,100784.46
2022-10-05T07:26:20.656Z,100783.96
2022-10-05T07:29:13.523Z,100785.11
2022-10-05T07:31:51.481Z,100778.14
2022-10-05T07:34:34.886Z,100783.30
2022-10-05T07:37:28.874Z,100768.95
2022-10-05T07:40:11.790Z,100775.12
2022-10-05T07:42:56.597Z,100774.30
2022-10-05T07:45:40.394Z,100775.04
2022-10-05T07:48:19.900Z,100775.28
2022-10-05T07:51:00.930Z,100774.80
2022-10-05T07:53:37.922Z,100771.06
2022-10-05T07:56:15.931Z,100763.27
2022-10-05T07:58:52.735Z,100766.85
2022-10-05T08:01:29.651Z,100768.79
2022-10-05T08:04:09.976Z,100774.67
2022-10-05T08:06:50.460Z,100773.39
2022-10-05T08:09:42.374Z,100778.17
2022-10-05T08:12:24.541Z,100776.24
2022-10-05T08:15:00.019Z,100773.35
2022-10-05T08:17:40.976Z,100759.77
2022-10-05T08:20:28.492Z,100763.23
2022-10-05T08:23:03.202Z,100753.72
2022-10-05T08:25:47.440Z,100752.55
2022-10-05T08:28:22.034Z,100749.99
2022-10-05T08:30:57.853Z,100745.89
2022-10-05T08:33:34.129Z,100739.71
2022-10-05T08:36:11.749Z,100741.84
2022-10-05T08:38:43.207Z,100741.66
2022-10-05T08:41:47.119Z,100744.03
2022-10-05T08:44:58.743Z,100743.58
2022-10-05T08:47:58.240Z,100740.52
2022-10-05T08:50:35.779Z,100741.06
2022-10-05T08:53:25.122Z,100736.12
2022-10-05T08:56:30.442Z,100736.82
2022-10-05T08:59:16.797Z,100732.44
2022-10-05T09:02:09.756Z,100729.62
2022-10-05T09:04:55.006Z,100727.45
2022-10-05T09:07:46.395Z,100717.50
2022-10-05T09:10:45.871Z,100720.36
2022-10-05T09:13:46.348Z,100714.44
2022-10-05T09:16:38.310Z,100712.92
2022-10-05T09:19:32.711Z,100706.97
2022-10-05T09:22:15.137Z,100707.32
2022-10-05T09:24:57.856Z,100705.37
2022-10-05T09:27:38.823Z,100707.25
2022-10-05T09:30:32.223Z,100702.34
2022-10-05T09:33:34.757Z,100692.67
2022-10-05T09:36:32.418Z,100688.55
2022-10-05T09:39:29.234Z,100690.70
2022-10-05T09:42:18.519Z,100695.27
2022-10-05T09:45:22.804Z,100688.98
2022-10-05T09:48:13.127Z,100686.67
2022-10-05T09:51:12.755Z,100682.39
2022-10-05T09:54:13.998Z,100681.33
2022-10-05T09:57:12.384Z,100683.43
2022-10-05T10:00:13.082Z,100679.42
2022-10-05T10:03:21.282Z,100673.33
2022-10-05T10:06:10.389Z,100670.73
2022-10-05T10:08:57.507Z,100669.36
2022-10-05T10:11:42.661Z,100675.98
2022-10-05T10:14:42.792Z,100675.36
2022-10-05T10:17:30.047Z,100670.95
2022-10-05T10:20:28.630Z,100661.29
2022-10-05T10:23:28.468Z,100660.23
2022-10-05T10:26:31.827Z,100661.50
2022-10-05T10:29:30.202Z,100657.13
2022-10-05T10:32:14.605Z,100654.16
2022-10-05T10:35:05.452Z,100651.38
2022-10-05T10:38:02.658Z,100653.10
2022-10-05T10:40:43.712Z,100650.65
2022-10-05T10:43:43.838Z,100646.39
2022-10-05T10:46:33.265Z,100646.55
2022-10-05T10:49:20.483Z,100646.54
2022-10-05T10:52:13.057Z,100644.70
2022-10-05T10:55:23.245Z,100650.50
2022-10-05T10:58:15.060Z,100646.84
2022-10-05T11:00:54.502Z,100640.30
2022-10-05T11:04:01.371Z,100635.88
2022-10-05T11:07:04.734Z,100637.48
2022-10-05T11:09:54.927Z,100642.71
2022-10-05T11:12:41.485Z,100633.00
2022-10-05T11:15:43.409Z,100629.92
2022-10-05T11:18:33.566Z,100630.08
2022-10-05T11:21:21.842Z,100629.30
2022-10-05T11:24:34.316Z,100628.08
2022-10-05T11:27:28.577Z,100623.56
2022-10-05T11:30:25.783Z,100618.43
2022-10-05T11:33:30.064Z,100617.00
2022-10-05T11:36:37.726Z,100617.66
2022-10-05T11:39:38.163Z,100618.04
2022-10-05T11:42:30.860Z,100609.26
2022-10-05T11:45:25.921Z,100611.77
2022-10-05T11:48:34.837Z,100608.33
2022-10-05T11:51:29.935Z,100606.39
2022-10-05T11:54:17.534Z,100604.91
2022-10-05T11:56:55.244Z,100602.58
2022-10-05T11:59:35.897Z,100603.48
2022-10-05T12:02:22.109Z,100600.14
2022-10-05T12:05:01.829Z,100599.44
2022-10-05T12:07:41.428Z,100603.52
2022-10-05T12:10:24.512Z,100603.67
2022-10-05T12:13:09.820Z,100604.84
2022-10-05T12:15:49.368Z,100598.83
2022-10-05T12:18:25.293Z,100598.01
2022-10-05T12:21:03.300Z,100593.14
2022-10-05T12:23:39.107Z,100590.85
2022-10-05T12:26:15.198Z,100587.66
2022-10-05T12:28:50.848Z,100588.66
2022-10-05T12:31:30.195Z,100585.16
2022-10-05T12:34:10.127Z,100585.88
2022-10-05T12:37:03.601Z,100583.27
2022-10-05T12:39:44.594Z,100582.41
2022-10-05T12:42:27.417Z,100580.27
2022-10-05T12:45:19.078Z,100577.18
2022-10-05T12:48:09.741Z,100572.93
2022-10-05T12:50:48.262Z,100567.80
2022-10-05T12:53:34.352Z,100572.01
2022-10-05T12:56:11.126Z,100569.66
2022-10-05T12:58:52.774Z,100569.88
2022-10-05T13:01:36.217Z,100570.69
2022-10-05T13:04:24.066Z,100564.06
2022-10-05T13:07:17.415Z,100562.55
2022-10-05T13:09:58.453Z,100556.09
2022-10-05T13:12:38.475Z,100554.71
2022-10-05T13:15:18.379Z,100550.10
2022-10-05T13:17:58.640Z,100550.50
2022-10-05T13:20:35.290Z,100552.30
2022-10-05T13:23:14.212Z,100549.41
2022-10-05T13:25:52.158Z,100554.36
2022-10-05T13:28:27.398Z,100553.97
2022-10-05T13:31:06.925Z,100553.68
2022-10-05T13:33:57.472Z,100553.73
2022-10-05T13:36:38.440Z,100551.63
2022-10-05T13:39:22.460Z,100554.39
2022-10-05T13:42:00.306Z,100552.55
2022-10-05T13:44:38.283Z,100548.55
2022-10-05T13:47:16.811Z,100550.64
2022-10-05T13:50:09.212Z,100553.14
2022-10-05T13:52:50.606Z,100551.87
2022-10-05T13:55:34.932Z,100550.36
2022-10-05T13:58:18.131Z,100541.46
2022-10-05T14:00:51.853Z,100543.27
2022-10-05T14:03:32.353Z,100547.22
2022-10-05T14:06:06.689Z,100545.66
2022-10-05T14:08:48.894Z,100546.92
2022-10-05T14:11:33.511Z,100543.45
2022-10-05T14:14:18.141Z,100543.55
2022-10-05T14:16:56.223Z,100542.45
2022-10-05T14:19:28.399Z,100541.20
2022-10-05T14:22:04.600Z,100540.95
2022-10-05T14:24:44.072Z,100537.02
2022-10-05T14:27:24.024Z,100539.55
2022-10-05T14:30:03.215Z,100540.02
2022-10-05T14:32:44.443Z,100541.69
2022-10-05T14:35:22.123Z,100540.89
2022-10-05T14:37:58.159Z,100536.42
2022-10-05T14:40:34.337Z,100533.51
2022-10-05T14:43:21.211Z,100536.73
2022-10-05T14:46:01.386Z,100538.83
2022-10-05T14:48:44.446Z,100536.20
2022-10-05T14:51:31.819Z,100536.77
2022-10-05T14:54:27.638Z,100538.25
2022-10-05T14:57:12.538Z,100530.02
2022-10-05T15:00:00.161Z,100532.54
2022-10-05T15:03:00.813Z,100534.39
2022-10-05T15:05:36.526Z,100530.45
2022-10-05T15:08:24.237Z,100527.36
2022-10-05T15:11:02.030Z,100527.55
2022-10-05T15:13:35.366Z,100526.98
2022-10-05T15:16:15.779Z,100529.23
2022-10-05T15:18:51.068Z,100532.33
2022-10-05T15:21:51.771Z,100532.98
2022-10-05T15:24:27.957Z,100532.89
2022-10-05T15:27:04.125Z,100538.66
2022-10-05T15:29:51.300Z,100538.86
2022-10-05T15:32:42.593Z,100537.26
2022-10-05T15:35:49.926Z,100534.52
2022-10-05T15:38:28.387Z,100535.10
2022-10-05T15:41:14.792Z,100534.08
2022-10-05T15:44:06.536Z,100534.11
2022-10-05T15:46:50.862Z,100529.83
2022-10-05T15:49:23.356Z,100527.21
2022-10-05T15:52:01.656Z,100535.95
2022-10-05T15:54:58.099Z,100534.45
2022-10-05T15:57:40.015Z,100539.16
2022-10-05T16:00:15.018Z,100545.19
2022-10-05T16:02:52.854Z,100541.38
2022-10-05T16:05:59.248Z,100537.92
2022-10-05T16:08:51.618Z,100538.72
2022-10-05T16:11:36.941Z,100539.52
2022-10-05T16:14:21.450Z,100537.56
2022-10-05T16:17:03.364Z,100544.53
2022-10-05T16:19:42.391Z,100540.05
2022-10-05T16:22:21.764Z,100542.45
2022-10-05T16:25:10.469Z,100542.83
2022-10-05T16:27:54.126Z,100540.90
2022-10-05T16:30:26.444Z,100546.88
2022-10-05T16:33:02.019Z,100544.89
2022-10-05T16:35:44.639Z,100548.20
2022-10-05T16:38:27.168Z,100548.60
2022-10-05T16:41:08.074Z,100549.73
2022-10-05T16:43:50.806Z,100545.71
2022-10-05T16:46:30.146Z,100546.28
2022-10-05T16:49:10.661Z,100555.84
2022-10-05T16:51:52.550Z,100556.64
2022-10-05T16:54:27.168Z,100556.83
2022-10-05T16:57:02.721Z,100565.98
2022-10-05T16:59:58.003Z,100560.58
2022-10-05T17:02:42.169Z,100567.55
2022-10-05T17:05:29.504Z,100565.62
2022-10-05T17:08:15.783Z,100567.00
2022-10-05T17:10:59.701Z,100567.77
2022-10-05T17:13:55.248Z,100569.61
2022-10-05T17:16:36.331Z,100568.98
2022-10-05T17:19:32.687Z,100571.90
2022-10-05T17:22:03.695Z,100569.60
2022-10-05T17:24:53.262Z,100567.05
2022-10-05T17:27:32.821Z,100567.43
2022-10-05T17:30:39.038Z,100565.38
2022-10-05T17:33:26.534Z,100562.20
2022-10-05T17:36:18.469Z,100562.45
2022-10-05T17:39:12.227Z,100558.66
2022-10-05T17:41:43.372Z,100555.83
2022-10-05T17:44:24.778Z,100555.52
2022-10-05T17:46:57.457Z,100556.39
2022-10-05T17:50:16.156Z,100553.42
2022-10-05T17:53:24.759Z,100553.64
2022-10-05T17:56:06.020Z,100552.79
2022-10-05T17:59:03.401Z,100551.55
2022-10-05T18:01:38.639Z,100553.25
2022-10-05T18:04:44.931Z,100551.33
2022-10-05T18:07:22.976Z,100552.39
2022-10-05T18:10:22.098Z,100551.73
2022-10-05T18:13:21.748Z,100557.98
2022-10-05T18:15:52.584Z,100558.84
2022-10-05T18:18:57.358Z,100557.95
2022-10-05T18:21:38.988Z,100559.09
2022-10-05T18:24:46.376Z,100562.20
2022-10-05T18:27:47.422Z,100567.00
2022-10-05T18:30:23.148Z,100571.27
2022-10-05T18:33:27.168Z,100577.84
2022-10-05T18:36:07.912Z,100576.42
2022-10-05T18:38:51.338Z,100583.81
2022-10-05T18:41:48.849Z,100579.23
2022-10-05T18:44:37.329Z,100580.78
2022-10-05T18:47:19.162Z,100583.94
2022-10-05T18:50:06.523Z,100583.05
2022-10-05T18:52:53.559Z,100583.00
2022-10-05T18:55:32.943Z,100587.55
2022-10-05T18:58:21.913Z,100594.45
2022-10-05T19:01:20.753Z,100593.17
2022-10-05T19:04:03.369Z,100594.84
2022-10-05T19:06:41.438Z,100595.67
2022-10-05T19:09:24.836Z,100597.36
2022-10-05T19:12:03.414Z,100595.33
2022-10-05T19:14:46.920Z,100599.26
2022-10-05T19:17:26.870Z,100605.45
2022-10-05T19:20:17.412Z,100601.30
2022-10-05T19:23:05.339Z,100604.65
2022-10-05T19:25:46.213Z,100608.34
2022-10-05T19:28:31.015Z,100614.84
2022-10-05T19:31:19.536Z,100613.74
2022-10-05T19:34:03.510Z,100612.31
2022-10-05T19:36:46.971Z,100618.59
2022-10-05T19:39:28.464Z,100616.21
2022-10-05T19:42:17.922Z,100621.92
2022-10-05T19:45:04.544Z,100621.55
2022-10-05T19:47:47.435Z,100627.59
2022-10-05T19:50:29.765Z,100626.70
2022-10-05T19:53:07.412Z,100627.69
2022-10-05T19:55:41.591Z,100627.81
2022-10-05T19:58:24.721Z,100631.08
2022-10-05T20:01:01.631Z,100633.92
2022-10-05T20:03:35.449Z,100638.64
2022-10-05T20:06:08.834Z,100637.56
2022-10-05T20:08:45.321Z,100642.04
2022-10-05T20:11:17.522Z,100636.46
2022-10-05T20:14:12.962Z,100639.98
2022-10-05T20:17:15.984Z,100647.28
2022-10-05T20:20:04.345Z,100654.23
2022-10-05T20:22:37.991Z,100656.67
2022-10-05T20:25:29.839Z,100654.73
2022-10-05T20:28:02.381Z,100658.56
2022-10-05T20:30:34.261Z,100656.34
2022-10-05T20:33:10.460Z,100667.27
2022-10-05T20:35:41.161Z,100670.70
2022-10-05T20:38:11.835Z,100675.80
2022-10-05T20:40:42.474Z,100674.52
2022-10-05T20:43:13.222Z,100675.41
2022-10-05T20:45:44.419Z,100677.93
2022-10-05T20:48:16.597Z,100681.70
2022-10-05T20:50:47.519Z,100679.67
2022-10-05T20:53:18.198Z,100685.05
2022-10-05T20:55:48.921Z,100677.63
2022-10-05T20:58:19.588Z,100687.60
2022-10-05T21:01:08.030Z,100683.44
2022-10-05T21:03:39.002Z,100690.98
2022-10-05T21:06:10.215Z,100694.20
2022-10-05T21:08:40.894Z,100693.69
2022-10-05T21:11:11.466Z,100699.61
2022-10-05T21:13:45.807Z,100700.48
2022-10-05T21:16:18.421Z,100708.09
2022-10-05T21:18:49.899Z,100699.51
2022-10-05T21:21:20.911Z,100704.92
2022-10-05T21:23:51.570Z,100703.42
2022-10-05T21:26:22.249Z,100698.72
2022-10-05T21:28:52.920Z,100696.60
2022-10-05T21:31:23.658Z,100704.11
2022-10-05T21:33:54.530Z,100707.39
2022-10-05T21:36:25.638Z,100701.61
2022-10-05T21:38:57.002Z,100705.27
2022-10-05T21:41:27.821Z,100704.30
2022-10-05T21:43:58.408Z,100699.30
2022-10-05T21:46:30.089Z,100694.71
2022-10-05T21:49:00.690Z,100691.60
2022-10-05T21:51:31.523Z,100690.58
2022-10-05T21:54:04.279Z,100693.45
2022-10-05T21:56:38.851Z,100694.76
2022-10-05T21:59:12.621Z,100698.96
2022-10-05T22:01:43.268Z,100700.19
2022-10-05T22:04:15.037Z,100702.56
2022-10-05T22:06:45.897Z,100709.54
2022-10-05T22:09:16.629Z,100714.01
2022-10-05T22:11:50.251Z,100715.82
2022-10-05T22:14:21.030Z,100715.27
2022-10-05T22:16:53.299Z,100708.09
2022-10-05T22:19:22.388Z,100716.52
2022-10-05T22:21:53.248Z,100722.30
2022-10-05T22:24:23.883Z,100719.60
2022-10-05T22:26:54.723Z,100721.27
2022-10-05T22:29:25.697Z,100728.77
2022-10-05T22:31:58.070Z,100726.28
2022-10-05T22:34:27.232Z,100729.97
2022-10-05T22:36:58.654Z,100728.85
2022-10-05T22:39:29.558Z,100733.21
2022-10-05T22:42:00.517Z,100734.63
2022-10-05T22:44:31.086Z,100736.99
2022-10-05T22:47:02.126Z,100740.44
2022-10-05T22:49:32.961Z,100745.42
2022-10-05T22:52:03.820Z,100744.70
2022-10-05T22:54:37.329Z,100752.34
2022-10-05T22:57:08.346Z,100755.51
2022-10-05T22:59:38.980Z,100753.26
2022-10-05T23:02:09.688Z,100755.42
2022-10-05T23:04:40.592Z,100765.46
2022-10-05T23:07:11.235Z,100766.66
2022-10-05T23:09:41.884Z,100775.14
2022-10-05T23:12:13.644Z,100778.52
2022-10-05T23:14:44.252Z,100776.96
2022-10-05T23:17:14.830Z,100780.39
2022-10-05T23:19:45.477Z,100786.33
2022-10-05T23:22:16.183Z,100782.73
2022-10-05T23:24:46.800Z,100785.90
2022-10-05T23:27:17.533Z,100785.69
2022-10-05T23:29:48.307Z,100786.08
2022-10-05T23:32:18.936Z,100785.80
2022-10-05T23:34:49.620Z,100789.62
2022-10-05T23:37:22.719Z,100794.59
2022-10-05T23:39:53.288Z,100795.20
2022-10-05T23:42:24.115Z,100798.93
2022-10-05T23:44:54.723Z,100803.47
2022-10-05T23:47:25.470Z,100810.33
2022-10-05T23:49:56.537Z,100806.93
2022-10-05T23:52:27.332Z,100808.80
2022-10-05T23:54:58.273Z,100810.89
2022-10-05T23:57:28.885Z,100812.59
